sensor_id;sensor_type;location;lat;lon;timestamp;temperature;humidity
45849;DHT22;31567;54.600;9.842;2024-02-23T00:01:06;10.70;99.90
45849;DHT22;31567;54.600;9.842;2024-02-23T00:04:46;10.70;99.90
45849;DHT22;31567;54.600;9.842;2024-02-23T00:08:25;10.70;99.90
45849;DHT22;31567;54.600;9.842;2024-02-23T00:12:05;10.60;99.90
45849;DHT22;31567;54.600;9.842;2024-02-23T00:15:45;10.50;99.90
45849;DHT22;31567;54.600;9.842;2024-02-23T00:19:24;10.30;99.90
45849;DHT22;31567;54.600;9.842;2024-02-23T00:23:04;10.10;99.90
45849;DHT22;31567;54.600;9.842;2024-02-23T00:26:44;9.90;99.90
45849;DHT22;31567;54.600;9.842;2024-02-23T00:30:24;9.70;99.90
45849;DHT22;31567;54.600;9.842;2024-02-23T00:34:03;9.50;99.90
45849;DHT22;31567;54.600;9.842;2024-02-23T00:37:43;9.40;99.90
45849;DHT22;31567;54.600;9.842;2024-02-23T00:41:22;9.20;99.90
45849;DHT22;31567;54.600;9.842;2024-02-23T00:45:02;9.10;99.90
45849;DHT22;31567;54.600;9.842;2024-02-23T00:48:42;9.00;99.90
45849;DHT22;31567;54.600;9.842;2024-02-23T00:52:21;8.80;99.90
45849;DHT22;31567;54.600;9.842;2024-02-23T00:56:01;8.70;99.90
45849;DHT22;31567;54.600;9.842;2024-02-23T00:59:41;8.60;99.90
45849;DHT22;31567;54.600;9.842;2024-02-23T01:03:20;8.40;99.90
45849;DHT22;31567;54.600;9.842;2024-02-23T01:07:00;8.30;99.90
45849;DHT22;31567;54.600;9.842;2024-02-23T01:10:40;8.30;99.90
45849;DHT22;31567;54.600;9.842;2024-02-23T01:14:19;8.20;99.90
45849;DHT22;31567;54.600;9.842;2024-02-23T01:17:59;8.00;99.90
45849;DHT22;31567;54.600;9.842;2024-02-23T01:21:38;7.90;99.90
45849;DHT22;31567;54.600;9.842;2024-02-23T01:25:18;7.70;99.90
45849;DHT22;31567;54.600;9.842;2024-02-23T01:28:58;7.60;99.90
45849;DHT22;31567;54.600;9.842;2024-02-23T01:32:38;7.40;99.90
45849;DHT22;31567;54.600;9.842;2024-02-23T01:36:18;7.30;99.90
45849;DHT22;31567;54.600;9.842;2024-02-23T01:39:58;7.30;99.90
45849;DHT22;31567;54.600;9.842;2024-02-23T01:43:38;7.10;99.90
45849;DHT22;31567;54.600;9.842;2024-02-23T01:47:18;7.00;99.90
45849;DHT22;31567;54.600;9.842;2024-02-23T01:50:58;7.00;99.90
45849;DHT22;31567;54.600;9.842;2024-02-23T01:54:38;6.90;99.90
45849;DHT22;31567;54.600;9.842;2024-02-23T01:58:18;6.90;99.90
45849;DHT22;31567;54.600;9.842;2024-02-23T02:01:58;6.80;99.90
45849;DHT22;31567;54.600;9.842;2024-02-23T02:05:37;6.90;99.90
45849;DHT22;31567;54.600;9.842;2024-02-23T02:09:17;6.90;99.90
45849;DHT22;31567;54.600;9.842;2024-02-23T02:13:02;6.80;99.90
45849;DHT22;31567;54.600;9.842;2024-02-23T02:16:43;6.80;99.90
45849;DHT22;31567;54.600;9.842;2024-02-23T02:20:25;6.80;99.90
45849;DHT22;31567;54.600;9.842;2024-02-23T02:24:07;6.80;99.90
45849;DHT22;31567;54.600;9.842;2024-02-23T02:27:48;6.70;99.90
45849;DHT22;31567;54.600;9.842;2024-02-23T02:31:28;6.60;99.90
45849;DHT22;31567;54.600;9.842;2024-02-23T02:35:07;6.50;99.90
45849;DHT22;31567;54.600;9.842;2024-02-23T02:38:47;6.50;99.90
45849;DHT22;31567;54.600;9.842;2024-02-23T02:42:26;6.40;99.90
45849;DHT22;31567;54.600;9.842;2024-02-23T02:46:08;6.40;99.90
45849;DHT22;31567;54.600;9.842;2024-02-23T02:49:48;6.40;99.90
45849;DHT22;31567;54.600;9.842;2024-02-23T02:53:28;6.40;99.90
45849;DHT22;31567;54.600;9.842;2024-02-23T02:57:07;6.40;99.90
45849;DHT22;31567;54.600;9.842;2024-02-23T03:00:47;6.30;99.90
45849;DHT22;31567;54.600;9.842;2024-02-23T03:04:27;6.40;99.90
45849;DHT22;31567;54.600;9.842;2024-02-23T03:08:06;6.40;99.90
45849;DHT22;31567;54.600;9.842;2024-02-23T03:11:46;6.40;99.90
45849;DHT22;31567;54.600;9.842;2024-02-23T03:15:26;6.40;99.90
45849;DHT22;31567;54.600;9.842;2024-02-23T03:19:05;6.40;99.90
45849;DHT22;31567;54.600;9.842;2024-02-23T03:22:47;6.50;99.90
45849;DHT22;31567;54.600;9.842;2024-02-23T03:26:26;6.50;99.90
45849;DHT22;31567;54.600;9.842;2024-02-23T03:30:06;6.60;99.90
45849;DHT22;31567;54.600;9.842;2024-02-23T03:33:49;6.60;99.90
45849;DHT22;31567;54.600;9.842;2024-02-23T03:37:28;6.70;99.90
45849;DHT22;31567;54.600;9.842;2024-02-23T03:41:08;6.70;99.90
45849;DHT22;31567;54.600;9.842;2024-02-23T03:44:47;6.60;99.90
45849;DHT22;31567;54.600;9.842;2024-02-23T03:48:27;6.60;99.90
45849;DHT22;31567;54.600;9.842;2024-02-23T03:52:06;6.60;99.90
45849;DHT22;31567;54.600;9.842;2024-02-23T03:55:46;6.50;99.90
45849;DHT22;31567;54.600;9.842;2024-02-23T03:59:25;6.40;99.90
45849;DHT22;31567;54.600;9.842;2024-02-23T04:03:05;6.30;99.90
45849;DHT22;31567;54.600;9.842;2024-02-23T04:06:44;6.30;99.90
45849;DHT22;31567;54.600;9.842;2024-02-23T04:10:24;6.20;99.90
45849;DHT22;31567;54.600;9.842;2024-02-23T04:14:04;6.20;99.90
45849;DHT22;31567;54.600;9.842;2024-02-23T04:17:45;6.20;99.90
45849;DHT22;31567;54.600;9.842;2024-02-23T04:21:25;6.20;99.90
45849;DHT22;31567;54.600;9.842;2024-02-23T04:25:05;6.10;99.90
45849;DHT22;31567;54.600;9.842;2024-02-23T04:28:45;6.20;99.90
45849;DHT22;31567;54.600;9.842;2024-02-23T04:32:25;6.20;99.90
45849;DHT22;31567;54.600;9.842;2024-02-23T04:36:05;6.20;99.90
45849;DHT22;31567;54.600;9.842;2024-02-23T04:39:46;6.30;99.90
45849;DHT22;31567;54.600;9.842;2024-02-23T04:43:25;6.30;99.90
45849;DHT22;31567;54.600;9.842;2024-02-23T04:47:05;6.40;99.90
45849;DHT22;31567;54.600;9.842;2024-02-23T04:50:45;6.50;99.90
45849;DHT22;31567;54.600;9.842;2024-02-23T04:54:24;6.50;99.90
45849;DHT22;31567;54.600;9.842;2024-02-23T04:58:04;6.60;99.90
45849;DHT22;31567;54.600;9.842;2024-02-23T05:01:44;6.60;99.90
45849;DHT22;31567;54.600;9.842;2024-02-23T05:05:23;6.60;99.90
45849;DHT22;31567;54.600;9.842;2024-02-23T05:09:03;6.50;99.90
45849;DHT22;31567;54.600;9.842;2024-02-23T05:12:42;6.50;99.90
45849;DHT22;31567;54.600;9.842;2024-02-23T05:16:22;6.50;99.90
45849;DHT22;31567;54.600;9.842;2024-02-23T05:20:02;6.50;99.90
45849;DHT22;31567;54.600;9.842;2024-02-23T05:23:49;6.40;99.90
45849;DHT22;31567;54.600;9.842;2024-02-23T05:27:29;6.40;99.90
45849;DHT22;31567;54.600;9.842;2024-02-23T05:31:09;6.50;99.90
45849;DHT22;31567;54.600;9.842;2024-02-23T05:34:49;6.50;99.90
45849;DHT22;31567;54.600;9.842;2024-02-23T05:38:30;6.40;99.90
45849;DHT22;31567;54.600;9.842;2024-02-23T05:42:10;6.30;99.90
45849;DHT22;31567;54.600;9.842;2024-02-23T05:45:50;6.20;99.90
45849;DHT22;31567;54.600;9.842;2024-02-23T05:49:29;6.20;99.90
45849;DHT22;31567;54.600;9.842;2024-02-23T05:53:09;6.20;99.90
45849;DHT22;31567;54.600;9.842;2024-02-23T05:56:49;6.20;99.90
45849;DHT22;31567;54.600;9.842;2024-02-23T06:00:29;6.20;99.90
45849;DHT22;31567;54.600;9.842;2024-02-23T06:04:10;6.20;99.90
45849;DHT22;31567;54.600;9.842;2024-02-23T06:07:49;6.20;99.90
45849;DHT22;31567;54.600;9.842;2024-02-23T06:11:29;6.20;99.90
45849;DHT22;31567;54.600;9.842;2024-02-23T06:15:09;6.00;99.90
45849;DHT22;31567;54.600;9.842;2024-02-23T06:18:48;6.00;99.90
45849;DHT22;31567;54.600;9.842;2024-02-23T06:22:28;6.00;99.90
45849;DHT22;31567;54.600;9.842;2024-02-23T06:26:08;5.90;99.90
45849;DHT22;31567;54.600;9.842;2024-02-23T06:29:47;5.80;99.90
45849;DHT22;31567;54.600;9.842;2024-02-23T06:33:27;5.90;99.90
45849;DHT22;31567;54.600;9.842;2024-02-23T06:37:06;5.90;99.90
45849;DHT22;31567;54.600;9.842;2024-02-23T06:40:46;6.00;99.90
45849;DHT22;31567;54.600;9.842;2024-02-23T06:44:26;6.00;99.90
45849;DHT22;31567;54.600;9.842;2024-02-23T06:48:06;6.00;99.90
45849;DHT22;31567;54.600;9.842;2024-02-23T06:51:46;6.00;99.90
45849;DHT22;31567;54.600;9.842;2024-02-23T06:55:25;6.00;99.90
45849;DHT22;31567;54.600;9.842;2024-02-23T06:59:05;6.00;99.90
45849;DHT22;31567;54.600;9.842;2024-02-23T07:02:45;5.90;99.90
45849;DHT22;31567;54.600;9.842;2024-02-23T07:06:24;5.90;99.90
45849;DHT22;31567;54.600;9.842;2024-02-23T07:10:05;5.90;99.90
45849;DHT22;31567;54.600;9.842;2024-02-23T07:13:44;6.00;99.90
45849;DHT22;31567;54.600;9.842;2024-02-23T07:17:24;5.90;99.90
45849;DHT22;31567;54.600;9.842;2024-02-23T07:21:03;5.90;99.90
45849;DHT22;31567;54.600;9.842;2024-02-23T07:24:43;5.90;99.90
45849;DHT22;31567;54.600;9.842;2024-02-23T07:28:23;5.80;99.90
45849;DHT22;31567;54.600;9.842;2024-02-23T07:32:02;5.80;99.90
45849;DHT22;31567;54.600;9.842;2024-02-23T07:35:42;5.90;99.90
45849;DHT22;31567;54.600;9.842;2024-02-23T07:39:22;5.80;99.90
45849;DHT22;31567;54.600;9.842;2024-02-23T07:43:01;5.70;99.90
45849;DHT22;31567;54.600;9.842;2024-02-23T07:46:41;5.60;99.90
45849;DHT22;31567;54.600;9.842;2024-02-23T07:50:21;5.70;99.90
45849;DHT22;31567;54.600;9.842;2024-02-23T07:54:01;5.80;99.90
45849;DHT22;31567;54.600;9.842;2024-02-23T07:57:40;5.80;99.90
45849;DHT22;31567;54.600;9.842;2024-02-23T08:01:20;6.00;99.90
45849;DHT22;31567;54.600;9.842;2024-02-23T08:05:00;6.00;99.90
45849;DHT22;31567;54.600;9.842;2024-02-23T08:08:40;6.00;99.90
45849;DHT22;31567;54.600;9.842;2024-02-23T08:12:19;6.00;99.90
45849;DHT22;31567;54.600;9.842;2024-02-23T08:15:59;6.10;99.90
45849;DHT22;31567;54.600;9.842;2024-02-23T08:19:38;6.10;99.90
45849;DHT22;31567;54.600;9.842;2024-02-23T08:23:18;6.20;99.90
45849;DHT22;31567;54.600;9.842;2024-02-23T08:27:02;6.30;99.90
45849;DHT22;31567;54.600;9.842;2024-02-23T08:30:42;6.30;99.90
45849;DHT22;31567;54.600;9.842;2024-02-23T08:34:21;6.40;99.90
45849;DHT22;31567;54.600;9.842;2024-02-23T08:38:01;6.50;99.90
45849;DHT22;31567;54.600;9.842;2024-02-23T08:41:40;6.50;99.90
45849;DHT22;31567;54.600;9.842;2024-02-23T08:45:20;6.50;99.90
45849;DHT22;31567;54.600;9.842;2024-02-23T08:49:00;6.50;99.90
45849;DHT22;31567;54.600;9.842;2024-02-23T08:52:39;6.60;99.90
45849;DHT22;31567;54.600;9.842;2024-02-23T08:56:19;6.60;99.90
45849;DHT22;31567;54.600;9.842;2024-02-23T08:59:58;6.70;99.90
45849;DHT22;31567;54.600;9.842;2024-02-23T09:03:38;6.70;99.90
45849;DHT22;31567;54.600;9.842;2024-02-23T09:07:17;6.70;99.90
45849;DHT22;31567;54.600;9.842;2024-02-23T09:11:00;6.70;99.90
45849;DHT22;31567;54.600;9.842;2024-02-23T09:14:39;6.80;99.90
45849;DHT22;31567;54.600;9.842;2024-02-23T09:18:20;6.90;99.90
45849;DHT22;31567;54.600;9.842;2024-02-23T09:22:00;7.00;99.90
45849;DHT22;31567;54.600;9.842;2024-02-23T09:25:41;7.00;99.90
45849;DHT22;31567;54.600;9.842;2024-02-23T09:29:21;7.00;99.90
45849;DHT22;31567;54.600;9.842;2024-02-23T09:33:03;7.00;99.90
45849;DHT22;31567;54.600;9.842;2024-02-23T09:36:43;6.90;99.90
45849;DHT22;31567;54.600;9.842;2024-02-23T09:40:22;7.00;99.90
45849;DHT22;31567;54.600;9.842;2024-02-23T09:44:02;7.00;99.90
45849;DHT22;31567;54.600;9.842;2024-02-23T09:47:42;7.20;99.90
45849;DHT22;31567;54.600;9.842;2024-02-23T09:51:23;7.20;99.90
45849;DHT22;31567;54.600;9.842;2024-02-23T09:55:03;7.40;99.90
45849;DHT22;31567;54.600;9.842;2024-02-23T09:58:44;7.40;99.90
45849;DHT22;31567;54.600;9.842;2024-02-23T10:02:25;7.60;99.90
45849;DHT22;31567;54.600;9.842;2024-02-23T10:06:05;7.70;99.90
45849;DHT22;31567;54.600;9.842;2024-02-23T10:09:44;7.80;99.90
45849;DHT22;31567;54.600;9.842;2024-02-23T10:13:24;7.80;99.90
45849;DHT22;31567;54.600;9.842;2024-02-23T10:17:06;7.80;99.90
45849;DHT22;31567;54.600;9.842;2024-02-23T10:20:47;7.90;99.90
45849;DHT22;31567;54.600;9.842;2024-02-23T10:24:26;7.90;99.90
45849;DHT22;31567;54.600;9.842;2024-02-23T10:28:06;8.00;99.90
45849;DHT22;31567;54.600;9.842;2024-02-23T10:31:47;7.90;99.90
45849;DHT22;31567;54.600;9.842;2024-02-23T10:35:30;8.00;99.90
45849;DHT22;31567;54.600;9.842;2024-02-23T10:39:11;7.90;99.90
45849;DHT22;31567;54.600;9.842;2024-02-23T10:42:56;8.10;99.90
45849;DHT22;31567;54.600;9.842;2024-02-23T10:46:39;8.00;99.90
45849;DHT22;31567;54.600;9.842;2024-02-23T10:50:20;8.00;99.90
45849;DHT22;31567;54.600;9.842;2024-02-23T10:54:01;8.00;99.90
45849;DHT22;31567;54.600;9.842;2024-02-23T10:57:42;7.90;99.90
45849;DHT22;31567;54.600;9.842;2024-02-23T11:01:23;7.90;99.90
45849;DHT22;31567;54.600;9.842;2024-02-23T11:05:04;7.90;99.90
45849;DHT22;31567;54.600;9.842;2024-02-23T11:08:44;7.90;99.90
45849;DHT22;31567;54.600;9.842;2024-02-23T11:12:24;8.00;99.90
45849;DHT22;31567;54.600;9.842;2024-02-23T11:16:08;8.00;99.90
45849;DHT22;31567;54.600;9.842;2024-02-23T11:19:51;7.80;99.90
45849;DHT22;31567;54.600;9.842;2024-02-23T11:23:44;7.80;99.90
45849;DHT22;31567;54.600;9.842;2024-02-23T11:27:29;7.80;99.90
45849;DHT22;31567;54.600;9.842;2024-02-23T11:31:13;7.80;99.90
45849;DHT22;31567;54.600;9.842;2024-02-23T11:34:56;7.90;99.90
45849;DHT22;31567;54.600;9.842;2024-02-23T11:38:36;7.90;99.90
45849;DHT22;31567;54.600;9.842;2024-02-23T11:42:18;8.00;99.90
45849;DHT22;31567;54.600;9.842;2024-02-23T11:45:58;8.10;99.90
45849;DHT22;31567;54.600;9.842;2024-02-23T11:49:37;8.20;99.90
45849;DHT22;31567;54.600;9.842;2024-02-23T11:53:17;8.10;99.90
45849;DHT22;31567;54.600;9.842;2024-02-23T11:56:58;8.10;99.90
45849;DHT22;31567;54.600;9.842;2024-02-23T12:00:39;8.10;99.90
45849;DHT22;31567;54.600;9.842;2024-02-23T12:04:19;8.20;99.90
45849;DHT22;31567;54.600;9.842;2024-02-23T12:07:59;8.20;99.90
45849;DHT22;31567;54.600;9.842;2024-02-23T12:11:39;8.20;99.90
45849;DHT22;31567;54.600;9.842;2024-02-23T12:15:19;8.30;99.90
45849;DHT22;31567;54.600;9.842;2024-02-23T12:19:01;8.30;99.90
45849;DHT22;31567;54.600;9.842;2024-02-23T12:22:41;8.20;99.90
45849;DHT22;31567;54.600;9.842;2024-02-23T12:26:20;8.30;99.90
45849;DHT22;31567;54.600;9.842;2024-02-23T12:30:00;8.40;99.90
45849;DHT22;31567;54.600;9.842;2024-02-23T12:33:40;8.60;99.90
45849;DHT22;31567;54.600;9.842;2024-02-23T12:37:21;8.60;99.90
45849;DHT22;31567;54.600;9.842;2024-02-23T12:41:02;8.60;99.90
45849;DHT22;31567;54.600;9.842;2024-02-23T12:44:43;8.60;99.90
45849;DHT22;31567;54.600;9.842;2024-02-23T12:48:23;8.60;99.90
45849;DHT22;31567;54.600;9.842;2024-02-23T12:52:02;8.50;99.80
45849;DHT22;31567;54.600;9.842;2024-02-23T12:55:42;8.50;99.80
45849;DHT22;31567;54.600;9.842;2024-02-23T12:59:22;8.50;99.90
45849;DHT22;31567;54.600;9.842;2024-02-23T13:03:02;8.60;99.90
45849;DHT22;31567;54.600;9.842;2024-02-23T13:06:42;8.70;99.80
45849;DHT22;31567;54.600;9.842;2024-02-23T13:10:21;8.70;99.50
45849;DHT22;31567;54.600;9.842;2024-02-23T13:14:01;8.70;99.10
45849;DHT22;31567;54.600;9.842;2024-02-23T13:17:40;8.80;99.00
45849;DHT22;31567;54.600;9.842;2024-02-23T13:21:20;8.80;98.80
45849;DHT22;31567;54.600;9.842;2024-02-23T13:25:00;8.80;99.10
45849;DHT22;31567;54.600;9.842;2024-02-23T13:28:42;8.80;98.90
45849;DHT22;31567;54.600;9.842;2024-02-23T13:32:23;8.80;98.80
45849;DHT22;31567;54.600;9.842;2024-02-23T13:36:03;8.80;98.80
45849;DHT22;31567;54.600;9.842;2024-02-23T13:39:43;8.90;98.60
45849;DHT22;31567;54.600;9.842;2024-02-23T13:43:22;9.00;98.90
45849;DHT22;31567;54.600;9.842;2024-02-23T13:47:02;9.00;98.80
45849;DHT22;31567;54.600;9.842;2024-02-23T13:50:42;9.10;98.80
45849;DHT22;31567;54.600;9.842;2024-02-23T13:54:21;9.20;98.90
45849;DHT22;31567;54.600;9.842;2024-02-23T13:58:01;9.20;98.70
45849;DHT22;31567;54.600;9.842;2024-02-23T14:01:41;9.20;98.50
45849;DHT22;31567;54.600;9.842;2024-02-23T14:05:21;9.30;98.50
45849;DHT22;31567;54.600;9.842;2024-02-23T14:09:01;9.30;98.60
45849;DHT22;31567;54.600;9.842;2024-02-23T14:12:42;9.40;98.70
45849;DHT22;31567;54.600;9.842;2024-02-23T14:16:22;9.30;98.30
45849;DHT22;31567;54.600;9.842;2024-02-23T14:20:03;9.40;98.50
45849;DHT22;31567;54.600;9.842;2024-02-23T14:23:42;9.30;98.20
45849;DHT22;31567;54.600;9.842;2024-02-23T14:27:22;9.40;98.40
45849;DHT22;31567;54.600;9.842;2024-02-23T14:31:01;9.50;98.40
45849;DHT22;31567;54.600;9.842;2024-02-23T14:34:41;9.50;98.20
45849;DHT22;31567;54.600;9.842;2024-02-23T14:38:21;9.70;97.70
45849;DHT22;31567;54.600;9.842;2024-02-23T14:42:00;9.80;97.40
45849;DHT22;31567;54.600;9.842;2024-02-23T14:45:40;9.70;97.30
45849;DHT22;31567;54.600;9.842;2024-02-23T14:49:20;9.70;97.30
45849;DHT22;31567;54.600;9.842;2024-02-23T14:53:00;9.80;97.10
45849;DHT22;31567;54.600;9.842;2024-02-23T14:56:40;10.00;97.30
45849;DHT22;31567;54.600;9.842;2024-02-23T15:00:19;10.30;97.00
45849;DHT22;31567;54.600;9.842;2024-02-23T15:03:59;10.30;96.50
45849;DHT22;31567;54.600;9.842;2024-02-23T15:07:38;10.20;96.40
45849;DHT22;31567;54.600;9.842;2024-02-23T15:11:18;10.10;96.30
45849;DHT22;31567;54.600;9.842;2024-02-23T15:14:58;10.00;96.40
45849;DHT22;31567;54.600;9.842;2024-02-23T15:18:37;9.90;96.60
45849;DHT22;31567;54.600;9.842;2024-02-23T15:22:17;9.70;96.70
45849;DHT22;31567;54.600;9.842;2024-02-23T15:25:58;9.80;96.90
45849;DHT22;31567;54.600;9.842;2024-02-23T15:29:37;9.60;96.80
45849;DHT22;31567;54.600;9.842;2024-02-23T15:33:17;9.60;97.20
45849;DHT22;31567;54.600;9.842;2024-02-23T15:36:57;9.60;97.40
45849;DHT22;31567;54.600;9.842;2024-02-23T15:40:36;9.60;97.10
45849;DHT22;31567;54.600;9.842;2024-02-23T15:44:16;9.60;97.30
45849;DHT22;31567;54.600;9.842;2024-02-23T15:47:56;9.50;97.10
45849;DHT22;31567;54.600;9.842;2024-02-23T15:51:36;9.60;97.30
45849;DHT22;31567;54.600;9.842;2024-02-23T15:55:16;9.50;97.20
45849;DHT22;31567;54.600;9.842;2024-02-23T15:58:56;9.50;97.20
45849;DHT22;31567;54.600;9.842;2024-02-23T16:02:36;9.40;97.30
45849;DHT22;31567;54.600;9.842;2024-02-23T16:06:15;9.40;97.20
45849;DHT22;31567;54.600;9.842;2024-02-23T16:09:55;9.40;97.20
45849;DHT22;31567;54.600;9.842;2024-02-23T16:13:35;9.40;97.10
45849;DHT22;31567;54.600;9.842;2024-02-23T16:17:14;9.30;96.90
45849;DHT22;31567;54.600;9.842;2024-02-23T16:20:54;9.30;97.10
45849;DHT22;31567;54.600;9.842;2024-02-23T16:24:34;9.30;97.30
45849;DHT22;31567;54.600;9.842;2024-02-23T16:28:13;9.30;97.30
45849;DHT22;31567;54.600;9.842;2024-02-23T16:31:53;9.20;97.40
45849;DHT22;31567;54.600;9.842;2024-02-23T16:35:32;9.10;97.40
45849;DHT22;31567;54.600;9.842;2024-02-23T16:39:12;9.10;97.70
45849;DHT22;31567;54.600;9.842;2024-02-23T16:42:51;9.10;97.80
45849;DHT22;31567;54.600;9.842;2024-02-23T16:46:31;9.10;97.80
45849;DHT22;31567;54.600;9.842;2024-02-23T16:50:11;9.10;97.80
45849;DHT22;31567;54.600;9.842;2024-02-23T16:53:51;9.20;98.00
45849;DHT22;31567;54.600;9.842;2024-02-23T16:57:30;9.10;97.80
45849;DHT22;31567;54.600;9.842;2024-02-23T17:01:10;9.10;97.90
45849;DHT22;31567;54.600;9.842;2024-02-23T17:04:50;9.00;98.00
45849;DHT22;31567;54.600;9.842;2024-02-23T17:08:30;9.00;98.40
45849;DHT22;31567;54.600;9.842;2024-02-23T17:12:09;9.00;98.50
45849;DHT22;31567;54.600;9.842;2024-02-23T17:15:49;8.90;98.70
45849;DHT22;31567;54.600;9.842;2024-02-23T17:19:28;8.80;98.80
45849;DHT22;31567;54.600;9.842;2024-02-23T17:23:08;8.80;99.10
45849;DHT22;31567;54.600;9.842;2024-02-23T17:26:48;8.70;99.30
45849;DHT22;31567;54.600;9.842;2024-02-23T17:30:28;8.70;99.30
45849;DHT22;31567;54.600;9.842;2024-02-23T17:34:07;8.60;99.30
45849;DHT22;31567;54.600;9.842;2024-02-23T17:37:47;8.60;99.40
45849;DHT22;31567;54.600;9.842;2024-02-23T17:41:27;8.60;99.40
45849;DHT22;31567;54.600;9.842;2024-02-23T17:45:07;8.50;99.50
45849;DHT22;31567;54.600;9.842;2024-02-23T17:48:48;8.50;99.70
45849;DHT22;31567;54.600;9.842;2024-02-23T17:52:28;8.50;99.80
45849;DHT22;31567;54.600;9.842;2024-02-23T17:56:07;8.50;99.80
45849;DHT22;31567;54.600;9.842;2024-02-23T17:59:47;8.40;99.80
45849;DHT22;31567;54.600;9.842;2024-02-23T18:03:27;8.40;99.90
45849;DHT22;31567;54.600;9.842;2024-02-23T18:07:06;8.40;99.90
45849;DHT22;31567;54.600;9.842;2024-02-23T18:10:46;8.40;99.90
45849;DHT22;31567;54.600;9.842;2024-02-23T18:14:25;8.40;99.90
45849;DHT22;31567;54.600;9.842;2024-02-23T18:18:05;8.40;99.90
45849;DHT22;31567;54.600;9.842;2024-02-23T18:21:44;8.40;99.90
45849;DHT22;31567;54.600;9.842;2024-02-23T18:25:24;8.40;99.90
45849;DHT22;31567;54.600;9.842;2024-02-23T18:29:04;8.30;99.90
45849;DHT22;31567;54.600;9.842;2024-02-23T18:32:43;8.30;99.90
45849;DHT22;31567;54.600;9.842;2024-02-23T18:36:23;8.30;99.90
45849;DHT22;31567;54.600;9.842;2024-02-23T18:40:03;8.30;99.90
45849;DHT22;31567;54.600;9.842;2024-02-23T18:43:43;8.20;99.90
45849;DHT22;31567;54.600;9.842;2024-02-23T18:47:23;8.30;99.90
45849;DHT22;31567;54.600;9.842;2024-02-23T18:51:03;8.30;99.90
45849;DHT22;31567;54.600;9.842;2024-02-23T18:54:42;8.20;99.90
45849;DHT22;31567;54.600;9.842;2024-02-23T18:58:22;8.20;99.90
45849;DHT22;31567;54.600;9.842;2024-02-23T19:02:02;8.30;99.90
45849;DHT22;31567;54.600;9.842;2024-02-23T19:05:42;8.20;99.90
45849;DHT22;31567;54.600;9.842;2024-02-23T19:09:22;8.20;99.90
45849;DHT22;31567;54.600;9.842;2024-02-23T19:13:02;8.20;99.90
45849;DHT22;31567;54.600;9.842;2024-02-23T19:16:43;8.20;99.90
45849;DHT22;31567;54.600;9.842;2024-02-23T19:20:23;8.20;99.90
45849;DHT22;31567;54.600;9.842;2024-02-23T19:24:03;8.10;99.90
45849;DHT22;31567;54.600;9.842;2024-02-23T19:27:42;8.20;99.90
45849;DHT22;31567;54.600;9.842;2024-02-23T19:31:22;8.10;99.90
45849;DHT22;31567;54.600;9.842;2024-02-23T19:35:05;8.10;99.90
45849;DHT22;31567;54.600;9.842;2024-02-23T19:38:44;8.10;99.90
45849;DHT22;31567;54.600;9.842;2024-02-23T19:42:25;8.00;99.90
45849;DHT22;31567;54.600;9.842;2024-02-23T19:46:06;8.10;99.90
45849;DHT22;31567;54.600;9.842;2024-02-23T19:49:46;8.00;99.90
45849;DHT22;31567;54.600;9.842;2024-02-23T19:53:25;8.10;99.90
45849;DHT22;31567;54.600;9.842;2024-02-23T19:57:05;8.00;99.90
45849;DHT22;31567;54.600;9.842;2024-02-23T20:00:44;8.00;99.90
45849;DHT22;31567;54.600;9.842;2024-02-23T20:04:24;7.90;99.90
45849;DHT22;31567;54.600;9.842;2024-02-23T20:08:04;7.90;99.90
45849;DHT22;31567;54.600;9.842;2024-02-23T20:11:43;7.80;99.90
45849;DHT22;31567;54.600;9.842;2024-02-23T20:15:23;7.70;99.90
45849;DHT22;31567;54.600;9.842;2024-02-23T20:19:02;7.60;99.90
45849;DHT22;31567;54.600;9.842;2024-02-23T20:22:42;7.60;99.90
45849;DHT22;31567;54.600;9.842;2024-02-23T20:26:21;7.60;99.90
45849;DHT22;31567;54.600;9.842;2024-02-23T20:30:02;7.50;99.90
45849;DHT22;31567;54.600;9.842;2024-02-23T20:33:42;7.60;99.90
45849;DHT22;31567;54.600;9.842;2024-02-23T20:37:23;7.50;99.90
45849;DHT22;31567;54.600;9.842;2024-02-23T20:41:03;7.60;99.90
45849;DHT22;31567;54.600;9.842;2024-02-23T20:44:43;7.60;99.90
45849;DHT22;31567;54.600;9.842;2024-02-23T20:48:23;7.60;99.90
45849;DHT22;31567;54.600;9.842;2024-02-23T20:52:02;7.60;99.90
45849;DHT22;31567;54.600;9.842;2024-02-23T20:55:42;7.60;99.90
45849;DHT22;31567;54.600;9.842;2024-02-23T20:59:21;7.70;99.90
45849;DHT22;31567;54.600;9.842;2024-02-23T21:03:04;7.70;99.90
45849;DHT22;31567;54.600;9.842;2024-02-23T21:06:43;7.80;99.90
45849;DHT22;31567;54.600;9.842;2024-02-23T21:10:23;7.80;99.90
45849;DHT22;31567;54.600;9.842;2024-02-23T21:14:02;7.90;99.90
45849;DHT22;31567;54.600;9.842;2024-02-23T21:17:42;7.90;99.90
45849;DHT22;31567;54.600;9.842;2024-02-23T21:21:21;7.90;99.90
45849;DHT22;31567;54.600;9.842;2024-02-23T21:25:01;7.90;99.90
45849;DHT22;31567;54.600;9.842;2024-02-23T21:28:41;7.80;99.90
45849;DHT22;31567;54.600;9.842;2024-02-23T21:32:21;7.80;99.90
45849;DHT22;31567;54.600;9.842;2024-02-23T21:36:00;7.70;99.90
45849;DHT22;31567;54.600;9.842;2024-02-23T21:39:40;7.70;99.90
45849;DHT22;31567;54.600;9.842;2024-02-23T21:43:20;7.60;99.90
45849;DHT22;31567;54.600;9.842;2024-02-23T21:46:59;7.50;99.90
45849;DHT22;31567;54.600;9.842;2024-02-23T21:50:39;7.50;99.90
45849;DHT22;31567;54.600;9.842;2024-02-23T21:54:18;7.50;99.90
45849;DHT22;31567;54.600;9.842;2024-02-23T21:57:59;7.50;99.90
45849;DHT22;31567;54.600;9.842;2024-02-23T22:01:38;7.50;99.90
45849;DHT22;31567;54.600;9.842;2024-02-23T22:05:18;7.40;99.90
45849;DHT22;31567;54.600;9.842;2024-02-23T22:08:59;7.40;99.90
45849;DHT22;31567;54.600;9.842;2024-02-23T22:12:38;7.50;99.90
45849;DHT22;31567;54.600;9.842;2024-02-23T22:16:18;7.40;99.90
45849;DHT22;31567;54.600;9.842;2024-02-23T22:19:57;7.50;99.90
45849;DHT22;31567;54.600;9.842;2024-02-23T22:23:37;7.50;99.90
45849;DHT22;31567;54.600;9.842;2024-02-23T22:27:16;7.40;99.90
45849;DHT22;31567;54.600;9.842;2024-02-23T22:30:56;7.30;99.90
45849;DHT22;31567;54.600;9.842;2024-02-23T22:34:37;7.30;99.90
45849;DHT22;31567;54.600;9.842;2024-02-23T22:38:17;7.30;99.90
45849;DHT22;31567;54.600;9.842;2024-02-23T22:41:57;7.30;99.90
45849;DHT22;31567;54.600;9.842;2024-02-23T22:45:36;7.30;99.90
45849;DHT22;31567;54.600;9.842;2024-02-23T22:49:16;7.20;99.90
45849;DHT22;31567;54.600;9.842;2024-02-23T22:52:56;7.20;99.90
45849;DHT22;31567;54.600;9.842;2024-02-23T22:56:36;7.20;99.90
45849;DHT22;31567;54.600;9.842;2024-02-23T23:00:16;7.10;99.90
45849;DHT22;31567;54.600;9.842;2024-02-23T23:03:55;7.10;99.90
45849;DHT22;31567;54.600;9.842;2024-02-23T23:07:35;7.10;99.90
45849;DHT22;31567;54.600;9.842;2024-02-23T23:11:15;7.10;99.90
45849;DHT22;31567;54.600;9.842;2024-02-23T23:14:54;7.10;99.90
45849;DHT22;31567;54.600;9.842;2024-02-23T23:18:34;7.10;99.90
45849;DHT22;31567;54.600;9.842;2024-02-23T23:22:15;7.10;99.90
45849;DHT22;31567;54.600;9.842;2024-02-23T23:25:54;7.10;99.90
45849;DHT22;31567;54.600;9.842;2024-02-23T23:29:34;7.00;99.90